createdAt,value
2019-05-30T00:00:16.584Z,0.00
2019-05-30T00:01:05.892Z,0.00
2019-05-30T00:02:05.917Z,0.00
2019-05-30T00:03:06.034Z,0.00
2019-05-30T00:04:05.952Z,0.00
2019-05-30T00:05:05.953Z,0.00
2019-05-30T00:06:05.999Z,0.00
2019-05-30T00:07:05.926Z,0.00
2019-05-30T00:08:06.014Z,0.00
2019-05-30T00:09:06.087Z,0.00
2019-05-30T00:10:05.990Z,0.00
2019-05-30T00:11:05.984Z,0.00
2019-05-30T00:12:06.121Z,0.00
2019-05-30T00:13:05.987Z,0.00
2019-05-30T00:14:06.230Z,0.00
2019-05-30T00:15:06.582Z,0.00
2019-05-30T00:16:06.322Z,0.00
2019-05-30T00:17:06.038Z,0.00
2019-05-30T00:18:06.049Z,0.00
2019-05-30T00:19:06.160Z,0.00
2019-05-30T00:20:06.175Z,0.00
2019-05-30T00:21:06.083Z,0.00
2019-05-30T00:22:06.212Z,0.00
2019-05-30T00:23:06.120Z,0.00
2019-05-30T00:24:06.281Z,0.00
2019-05-30T00:25:06.418Z,0.00
2019-05-30T00:26:07.487Z,0.00
2019-05-30T00:27:06.657Z,0.00
2019-05-30T00:28:07.486Z,0.00
2019-05-30T00:29:06.698Z,0.00
2019-05-30T00:30:20.008Z,0.00
2019-05-30T00:31:06.604Z,0.00
2019-05-30T00:32:06.263Z,0.00
2019-05-30T00:33:07.058Z,0.00
2019-05-30T00:34:06.194Z,0.00
2019-05-30T00:35:06.222Z,0.00
2019-05-30T00:36:06.241Z,0.00
2019-05-30T00:37:07.434Z,0.00
2019-05-30T00:38:06.267Z,0.00
2019-05-30T00:39:06.591Z,0.00
2019-05-30T00:40:06.260Z,0.00
2019-05-30T00:41:06.400Z,0.00
2019-05-30T00:42:06.370Z,0.00
2019-05-30T00:43:06.384Z,0.00
2019-05-30T00:44:06.382Z,0.00
2019-05-30T00:45:19.609Z,0.00
2019-05-30T00:46:06.371Z,0.00
2019-05-30T00:47:06.508Z,0.00
2019-05-30T00:48:06.532Z,0.00
2019-05-30T00:49:06.702Z,0.00
2019-05-30T00:50:06.734Z,0.00
2019-05-30T00:51:06.742Z,0.00
2019-05-30T00:52:06.785Z,0.00
2019-05-30T00:53:07.021Z,0.00
2019-05-30T00:54:07.028Z,0.00
2019-05-30T00:55:07.033Z,0.00
2019-05-30T00:56:06.845Z,0.00
2019-05-30T00:57:06.989Z,0.00
2019-05-30T00:58:07.440Z,0.00
2019-05-30T00:59:06.928Z,0.00
2019-05-30T01:00:07.138Z,0.00
2019-05-30T01:01:07.144Z,0.00
2019-05-30T01:02:07.020Z,0.00
2019-05-30T01:03:08.521Z,0.00
2019-05-30T01:04:07.140Z,0.00
2019-05-30T01:05:07.875Z,0.00
2019-05-30T01:06:07.259Z,0.00
2019-05-30T01:07:07.231Z,0.00
2019-05-30T01:08:07.216Z,0.00
2019-05-30T01:09:07.434Z,0.00
2019-05-30T01:10:07.443Z,0.00
2019-05-30T01:11:07.382Z,0.00
2019-05-30T01:12:07.395Z,0.00
2019-05-30T01:13:07.278Z,0.00
2019-05-30T01:14:07.474Z,0.00
2019-05-30T01:15:07.468Z,0.00
2019-05-30T01:16:07.322Z,0.00
2019-05-30T01:17:07.383Z,0.00
2019-05-30T01:18:07.382Z,0.00
2019-05-30T01:19:07.356Z,0.00
2019-05-30T01:20:07.458Z,0.00
2019-05-30T01:21:07.426Z,0.00
2019-05-30T01:22:07.584Z,0.00
2019-05-30T01:23:07.507Z,0.00
2019-05-30T01:24:07.699Z,0.00
2019-05-30T01:25:07.845Z,0.00
2019-05-30T01:26:07.648Z,0.00
2019-05-30T01:27:07.638Z,0.00
2019-05-30T01:28:07.827Z,0.00
2019-05-30T01:29:07.770Z,0.00
2019-05-30T01:30:07.950Z,0.00
2019-05-30T01:31:10.173Z,0.00
2019-05-30T01:32:07.619Z,0.00
2019-05-30T01:33:08.056Z,0.00
2019-05-30T01:34:07.918Z,0.00
2019-05-30T01:35:08.078Z,0.00
2019-05-30T01:36:07.931Z,0.00
2019-05-30T01:37:07.821Z,0.00
2019-05-30T01:38:08.101Z,0.00
2019-05-30T01:39:08.006Z,0.00
2019-05-30T01:40:08.452Z,0.00
2019-05-30T01:41:07.969Z,0.00
2019-05-30T01:42:07.984Z,0.00
2019-05-30T01:43:08.151Z,0.00
2019-05-30T01:44:08.221Z,0.00
2019-05-30T01:45:08.313Z,0.00
2019-05-30T01:46:08.259Z,0.00
2019-05-30T01:47:06.915Z,0.00
2019-05-30T01:48:07.028Z,0.00
2019-05-30T01:49:06.987Z,0.00
2019-05-30T01:50:06.951Z,0.00
2019-05-30T01:51:06.999Z,0.00
2019-05-30T01:52:06.956Z,0.00
2019-05-30T01:53:06.983Z,0.00
2019-05-30T01:54:06.965Z,0.00
2019-05-30T01:55:07.039Z,0.00
2019-05-30T01:56:07.203Z,0.00
2019-05-30T01:57:07.063Z,0.00
2019-05-30T01:58:07.286Z,0.00
2019-05-30T01:59:07.053Z,0.00
2019-05-30T02:00:18.771Z,0.00
2019-05-30T02:01:19.109Z,0.00
2019-05-30T02:02:07.307Z,0.00
2019-05-30T02:03:07.165Z,0.00
2019-05-30T02:04:07.353Z,0.00
2019-05-30T02:05:07.566Z,0.00
2019-05-30T02:06:07.378Z,0.00
2019-05-30T02:07:07.302Z,0.00
2019-05-30T02:08:07.332Z,0.00
2019-05-30T02:09:07.416Z,0.00
2019-05-30T02:10:07.446Z,0.00
2019-05-30T02:11:07.498Z,0.00
2019-05-30T02:12:07.601Z,0.00
2019-05-30T02:13:07.555Z,0.00
2019-05-30T02:14:07.741Z,0.00
2019-05-30T02:15:07.786Z,0.00
2019-05-30T02:16:07.814Z,0.00
2019-05-30T02:17:07.850Z,0.00
2019-05-30T02:18:07.709Z,0.00
2019-05-30T02:19:07.936Z,0.00
2019-05-30T02:20:07.955Z,0.00
2019-05-30T02:21:07.894Z,0.00
2019-05-30T02:22:07.973Z,0.00
2019-05-30T02:23:08.076Z,0.00
2019-05-30T02:24:07.975Z,0.00
2019-05-30T02:25:08.272Z,0.00
2019-05-30T02:26:08.241Z,0.00
2019-05-30T02:27:08.340Z,0.00
2019-05-30T02:28:08.246Z,0.00
2019-05-30T02:29:08.350Z,0.00
2019-05-30T02:30:09.296Z,0.00
2019-05-30T02:31:08.942Z,0.00
2019-05-30T02:32:09.020Z,0.00
2019-05-30T02:33:09.692Z,0.00
2019-05-30T02:34:07.966Z,0.00
2019-05-30T02:35:08.352Z,0.00
2019-05-30T02:36:08.512Z,0.00
2019-05-30T02:37:08.534Z,0.00
2019-05-30T02:38:09.204Z,0.00
2019-05-30T02:39:09.660Z,0.00
2019-05-30T02:40:10.515Z,0.00
2019-05-30T02:41:08.113Z,0.00
2019-05-30T02:42:07.921Z,0.00
2019-05-30T02:43:08.171Z,0.00
2019-05-30T02:44:08.093Z,0.00
2019-05-30T02:45:08.337Z,0.00
2019-05-30T02:46:08.475Z,0.00
2019-05-30T02:47:07.883Z,0.00
2019-05-30T02:48:09.339Z,0.00
2019-05-30T02:49:11.007Z,0.00
2019-05-30T02:50:09.066Z,0.00
2019-05-30T02:51:08.468Z,0.00
2019-05-30T02:52:08.590Z,0.00
2019-05-30T02:53:08.301Z,0.00
2019-05-30T02:54:09.338Z,0.00
2019-05-30T02:55:09.123Z,0.00
2019-05-30T02:56:08.084Z,0.00
2019-05-30T02:57:08.067Z,0.00
2019-05-30T02:58:08.608Z,0.00
2019-05-30T02:59:09.265Z,0.00
2019-05-30T03:00:12.458Z,0.00
2019-05-30T03:01:09.171Z,0.00
2019-05-30T03:02:12.348Z,0.00
2019-05-30T03:03:11.150Z,0.00
2019-05-30T03:04:08.705Z,0.00
2019-05-30T03:05:09.316Z,0.00
2019-05-30T03:06:09.242Z,0.00
2019-05-30T03:07:09.021Z,0.00
2019-05-30T03:08:09.839Z,0.00
2019-05-30T03:09:09.154Z,0.00
2019-05-30T03:10:11.781Z,0.00
2019-05-30T03:11:10.298Z,0.00
2019-05-30T03:12:09.123Z,0.00
2019-05-30T03:13:08.402Z,0.00
2019-05-30T03:14:12.057Z,0.00
2019-05-30T03:16:09.372Z,0.00
2019-05-30T03:17:10.222Z,0.00
2019-05-30T03:18:09.923Z,0.00
2019-05-30T03:19:08.510Z,0.00
2019-05-30T03:20:14.894Z,0.00
2019-05-30T03:21:10.265Z,0.00
2019-05-30T03:22:09.538Z,0.00
2019-05-30T03:23:09.661Z,0.00
2019-05-30T03:24:11.213Z,4.00
2019-05-30T03:25:10.404Z,0.00
2019-05-30T03:26:10.801Z,0.00
2019-05-30T03:27:09.933Z,4.00
2019-05-30T03:28:09.117Z,0.00
2019-05-30T03:29:10.007Z,0.00
2019-05-30T03:30:16.306Z,0.00
2019-05-30T03:31:14.008Z,4.00
2019-05-30T03:32:49.135Z,0.00
2019-05-30T03:33:24.429Z,0.00
2019-05-30T03:34:16.486Z,0.00
2019-05-30T03:35:15.075Z,4.00
2019-05-30T03:36:15.458Z,4.00
2019-05-30T03:37:16.724Z,0.00
2019-05-30T03:38:08.810Z,4.00
2019-05-30T03:39:09.969Z,4.00
2019-05-30T03:40:08.005Z,4.00
2019-05-30T03:41:09.934Z,4.00
2019-05-30T03:42:09.459Z,4.00
2019-05-30T03:43:09.255Z,8.00
2019-05-30T03:44:09.005Z,8.00
2019-05-30T03:45:10.671Z,8.00
2019-05-30T03:46:08.688Z,8.00
2019-05-30T03:47:09.205Z,8.00
2019-05-30T03:48:09.891Z,8.00
2019-05-30T03:49:08.768Z,8.00
2019-05-30T03:50:09.777Z,12.00
2019-05-30T03:51:09.364Z,12.00
2019-05-30T03:52:09.968Z,12.00
2019-05-30T03:53:11.042Z,8.00
2019-05-30T03:54:09.843Z,12.00
2019-05-30T03:55:10.007Z,12.00
2019-05-30T03:56:09.372Z,12.00
2019-05-30T03:57:09.103Z,16.00
2019-05-30T03:58:09.925Z,12.00
2019-05-30T03:59:09.858Z,16.00
2019-05-30T04:00:09.493Z,16.00
2019-05-30T04:01:08.374Z,16.00
2019-05-30T04:02:09.506Z,16.00
2019-05-30T04:03:10.821Z,20.00
2019-05-30T04:04:09.216Z,16.00
2019-05-30T04:05:09.266Z,20.00
2019-05-30T04:06:10.193Z,20.00
2019-05-30T04:07:09.125Z,24.00
2019-05-30T04:08:09.986Z,20.00
2019-05-30T04:09:09.804Z,24.00
2019-05-30T04:10:09.073Z,24.00
2019-05-30T04:11:09.790Z,28.00
2019-05-30T04:12:10.246Z,24.00
2019-05-30T04:13:09.891Z,28.00
2019-05-30T04:14:08.927Z,28.00
2019-05-30T04:15:09.895Z,28.00
2019-05-30T04:16:08.670Z,28.00
2019-05-30T04:17:10.492Z,32.00
2019-05-30T04:18:09.575Z,32.00
2019-05-30T04:19:09.839Z,28.00
2019-05-30T04:20:09.328Z,32.00
2019-05-30T04:21:09.004Z,32.00
2019-05-30T04:22:09.322Z,36.00
2019-05-30T04:23:08.692Z,32.00
2019-05-30T04:24:09.755Z,32.00
2019-05-30T04:25:08.622Z,36.00
2019-05-30T04:26:09.723Z,36.00
2019-05-30T04:27:09.768Z,40.00
2019-05-30T04:28:09.628Z,36.00
2019-05-30T04:29:09.839Z,36.00
2019-05-30T04:30:09.845Z,36.00
2019-05-30T04:31:09.928Z,40.00
2019-05-30T04:32:09.949Z,40.00
2019-05-30T04:33:19.520Z,40.00
2019-05-30T04:34:08.715Z,40.00
2019-05-30T04:35:08.538Z,44.00
2019-05-30T04:36:08.621Z,44.00
2019-05-30T04:37:08.482Z,44.00
2019-05-30T04:38:08.607Z,44.00
2019-05-30T04:39:08.919Z,44.00
2019-05-30T04:40:08.620Z,44.00
2019-05-30T04:41:08.924Z,44.00
2019-05-30T04:42:09.354Z,44.00
2019-05-30T04:43:09.098Z,48.00
2019-05-30T04:44:09.829Z,48.00
2019-05-30T04:45:09.655Z,48.00
2019-05-30T04:46:10.247Z,48.00
2019-05-30T04:47:09.966Z,52.00
2019-05-30T04:48:09.799Z,48.00
2019-05-30T04:49:10.113Z,48.00
2019-05-30T04:50:10.155Z,48.00
2019-05-30T04:51:10.011Z,52.00
2019-05-30T04:52:12.035Z,52.00
2019-05-30T04:53:10.158Z,52.00
2019-05-30T04:54:10.159Z,56.00
2019-05-30T04:55:10.530Z,52.00
2019-05-30T04:56:10.164Z,52.00
2019-05-30T04:57:10.658Z,52.00
2019-05-30T04:58:08.662Z,52.00
2019-05-30T04:59:08.646Z,56.00
2019-05-30T05:00:08.675Z,56.00
2019-05-30T05:01:08.792Z,56.00
2019-05-30T05:02:08.852Z,60.00
2019-05-30T05:03:08.728Z,60.00
2019-05-30T05:04:08.693Z,60.00
2019-05-30T05:05:09.136Z,60.00
2019-05-30T05:06:08.753Z,60.00
2019-05-30T05:07:08.783Z,60.00
2019-05-30T05:08:08.736Z,60.00
2019-05-30T05:09:08.741Z,60.00
2019-05-30T05:10:08.757Z,60.00
2019-05-30T05:11:12.387Z,60.00
2019-05-30T05:12:08.805Z,64.00
2019-05-30T05:13:08.800Z,60.00
2019-05-30T05:14:08.848Z,60.00
2019-05-30T05:15:08.789Z,60.00
2019-05-30T05:16:22.967Z,64.00
2019-05-30T05:17:08.824Z,64.00
2019-05-30T05:18:08.818Z,64.00
2019-05-30T05:19:08.837Z,64.00
2019-05-30T05:20:08.882Z,64.00
2019-05-30T05:21:08.842Z,64.00
2019-05-30T05:22:08.850Z,64.00
2019-05-30T05:23:08.977Z,64.00
2019-05-30T05:24:08.882Z,68.00
2019-05-30T05:25:08.881Z,64.00
2019-05-30T05:26:08.885Z,68.00
2019-05-30T05:27:10.010Z,68.00
2019-05-30T05:28:08.918Z,68.00
2019-05-30T05:29:08.911Z,68.00
2019-05-30T05:30:08.914Z,68.00
2019-05-30T05:31:08.937Z,68.00
2019-05-30T05:32:08.959Z,72.00
2019-05-30T05:33:08.998Z,76.00
2019-05-30T05:34:08.968Z,76.00
2019-05-30T05:35:09.004Z,84.00
2019-05-30T05:36:08.988Z,84.00
2019-05-30T05:37:09.011Z,88.00
2019-05-30T05:38:09.015Z,88.00
2019-05-30T05:39:09.073Z,88.00
2019-05-30T05:40:09.053Z,88.00
2019-05-30T05:41:09.104Z,96.00
2019-05-30T05:42:09.077Z,92.00
2019-05-30T05:43:09.047Z,96.00
2019-05-30T05:44:09.065Z,96.00
2019-05-30T05:45:09.064Z,96.00
2019-05-30T05:46:09.111Z,92.00
2019-05-30T05:47:09.155Z,96.00
2019-05-30T05:48:09.078Z,100.00
2019-05-30T05:49:09.151Z,96.00
2019-05-30T05:50:09.107Z,100.00
2019-05-30T05:51:09.150Z,100.00
2019-05-30T05:52:11.952Z,100.00
2019-05-30T05:53:09.183Z,100.00
2019-05-30T05:54:09.132Z,100.00
2019-05-30T05:55:09.183Z,104.00
2019-05-30T05:56:09.166Z,104.00
2019-05-30T05:57:09.235Z,104.00
2019-05-30T05:58:09.173Z,104.00
2019-05-30T05:59:09.168Z,104.00
2019-05-30T06:00:09.214Z,104.00
2019-05-30T06:01:09.426Z,108.00
2019-05-30T06:02:09.214Z,108.00
2019-05-30T06:03:09.217Z,108.00
2019-05-30T06:04:13.009Z,108.00
2019-05-30T06:05:09.390Z,108.00
2019-05-30T06:06:09.357Z,108.00
2019-05-30T06:07:09.249Z,112.00
2019-05-30T06:08:09.265Z,112.00
2019-05-30T06:09:09.295Z,112.00
2019-05-30T06:10:09.339Z,112.00
2019-05-30T06:11:09.318Z,112.00
2019-05-30T06:12:09.297Z,112.00
2019-05-30T06:13:09.351Z,116.00
2019-05-30T06:14:09.334Z,112.00
2019-05-30T06:15:09.478Z,112.00
2019-05-30T06:16:09.349Z,112.00
2019-05-30T06:17:09.348Z,112.00
2019-05-30T06:18:09.425Z,112.00
2019-05-30T06:19:09.577Z,112.00
2019-05-30T06:20:09.410Z,116.00
2019-05-30T06:21:09.422Z,112.00
2019-05-30T06:22:09.476Z,116.00
2019-05-30T06:23:09.417Z,116.00
2019-05-30T06:24:09.505Z,116.00
2019-05-30T06:25:09.603Z,116.00
2019-05-30T06:26:09.437Z,120.00
2019-05-30T06:27:09.444Z,120.00
2019-05-30T06:28:09.501Z,120.00
2019-05-30T06:29:09.509Z,120.00
2019-05-30T06:30:09.565Z,120.00
2019-05-30T06:31:09.492Z,120.00
2019-05-30T06:32:09.479Z,124.00
2019-05-30T06:33:09.506Z,124.00
2019-05-30T06:34:09.661Z,124.00
2019-05-30T06:35:09.712Z,124.00
2019-05-30T06:36:09.842Z,124.00
2019-05-30T06:37:12.064Z,124.00
2019-05-30T06:38:09.525Z,128.00
2019-05-30T06:39:09.558Z,128.00
2019-05-30T06:40:09.552Z,124.00
2019-05-30T06:41:09.779Z,128.00
2019-05-30T06:42:09.613Z,128.00
2019-05-30T06:43:09.597Z,128.00
2019-05-30T06:44:09.596Z,128.00
2019-05-30T06:45:09.662Z,128.00
2019-05-30T06:46:09.635Z,132.00
2019-05-30T06:47:09.608Z,132.00
2019-05-30T06:48:09.660Z,132.00
2019-05-30T06:49:09.683Z,132.00
2019-05-30T06:50:09.666Z,136.00
2019-05-30T06:51:09.664Z,136.00
2019-05-30T06:52:09.684Z,136.00
2019-05-30T06:53:09.677Z,136.00
2019-05-30T06:54:09.705Z,136.00
2019-05-30T06:55:09.803Z,140.00
2019-05-30T06:56:09.710Z,136.00
2019-05-30T06:57:09.731Z,140.00
2019-05-30T06:58:09.713Z,140.00
2019-05-30T06:59:09.767Z,144.00
2019-05-30T07:00:09.747Z,144.00
2019-05-30T07:01:09.761Z,144.00
2019-05-30T07:02:09.807Z,148.00
2019-05-30T07:03:09.918Z,144.00
2019-05-30T07:04:10.105Z,148.00
2019-05-30T07:05:10.896Z,148.00
2019-05-30T07:06:10.276Z,152.00
2019-05-30T07:07:10.174Z,152.00
2019-05-30T07:08:09.832Z,152.00
2019-05-30T07:09:09.852Z,152.00
2019-05-30T07:10:09.865Z,156.00
2019-05-30T07:11:09.856Z,152.00
2019-05-30T07:12:11.922Z,156.00
2019-05-30T07:13:09.882Z,160.00
2019-05-30T07:14:09.879Z,156.00
2019-05-30T07:15:09.931Z,160.00
2019-05-30T07:16:09.928Z,160.00
2019-05-30T07:17:09.915Z,164.00
2019-05-30T07:18:10.075Z,164.00
2019-05-30T07:19:09.928Z,164.00
2019-05-30T07:20:10.307Z,168.00
2019-05-30T07:21:09.971Z,168.00
2019-05-30T07:22:09.970Z,168.00
2019-05-30T07:23:09.997Z,172.00
2019-05-30T07:24:09.986Z,172.00
2019-05-30T07:25:09.979Z,176.00
2019-05-30T07:26:10.076Z,176.00
2019-05-30T07:27:10.000Z,180.00
2019-05-30T07:28:10.105Z,180.00
2019-05-30T07:29:10.068Z,180.00
2019-05-30T07:30:10.027Z,180.00
2019-05-30T07:31:10.041Z,184.00
2019-05-30T07:32:13.209Z,188.00
2019-05-30T07:33:10.195Z,192.00
2019-05-30T07:34:10.096Z,192.00
2019-05-30T07:35:10.109Z,192.00
2019-05-30T07:36:10.118Z,196.00
2019-05-30T07:37:10.095Z,196.00
2019-05-30T07:38:10.119Z,200.00
2019-05-30T07:39:10.189Z,200.00
2019-05-30T07:40:10.225Z,204.00
2019-05-30T07:41:10.763Z,204.00
2019-05-30T07:42:10.159Z,208.00
2019-05-30T07:43:10.167Z,208.00
2019-05-30T07:44:10.176Z,212.00
2019-05-30T07:45:10.307Z,212.00
2019-05-30T07:46:10.422Z,212.00
2019-05-30T07:47:10.217Z,216.00
2019-05-30T07:48:10.200Z,220.00
2019-05-30T07:49:10.214Z,224.00
2019-05-30T07:50:10.245Z,220.00
2019-05-30T07:51:10.246Z,224.00
2019-05-30T07:52:10.250Z,228.00
2019-05-30T07:53:10.426Z,228.00
2019-05-30T07:54:10.304Z,232.00
2019-05-30T07:55:10.308Z,232.00
2019-05-30T07:56:10.306Z,236.00
2019-05-30T07:57:10.297Z,240.00
2019-05-30T07:58:10.314Z,240.00
2019-05-30T07:59:10.394Z,244.00
2019-05-30T08:00:10.455Z,252.00
2019-05-30T08:01:10.454Z,248.00
2019-05-30T08:02:10.405Z,252.00
2019-05-30T08:03:10.363Z,256.00
2019-05-30T08:04:10.551Z,260.00
2019-05-30T08:05:23.645Z,260.00
2019-05-30T08:06:10.431Z,264.00
2019-05-30T08:07:10.411Z,268.00
2019-05-30T08:08:10.440Z,268.00
2019-05-30T08:09:10.457Z,272.00
2019-05-30T08:10:10.492Z,272.00
2019-05-30T08:11:10.528Z,272.00
2019-05-30T08:12:10.456Z,280.00
2019-05-30T08:13:10.478Z,280.00
2019-05-30T08:14:10.478Z,284.00
2019-05-30T08:15:10.595Z,284.00
2019-05-30T08:16:10.503Z,284.00
2019-05-30T08:17:10.501Z,284.00
2019-05-30T08:18:10.516Z,292.00
2019-05-30T08:19:10.521Z,292.00
2019-05-30T08:20:10.699Z,300.00
2019-05-30T08:21:10.539Z,300.00
2019-05-30T08:22:10.554Z,304.00
2019-05-30T08:23:10.565Z,308.00
2019-05-30T08:24:10.597Z,312.00
2019-05-30T08:25:10.629Z,316.00
2019-05-30T08:26:10.603Z,316.00
2019-05-30T08:27:10.614Z,320.00
2019-05-30T08:28:10.783Z,324.00
2019-05-30T08:29:10.631Z,328.00
2019-05-30T08:30:10.834Z,332.00
2019-05-30T08:31:10.654Z,332.00
2019-05-30T08:32:10.668Z,336.00
2019-05-30T08:33:10.689Z,340.00
2019-05-30T08:34:10.690Z,344.00
2019-05-30T08:35:10.717Z,348.00
2019-05-30T08:36:10.853Z,348.00
2019-05-30T08:37:10.752Z,352.00
2019-05-30T08:38:10.945Z,356.00
2019-05-30T08:39:10.804Z,356.00
2019-05-30T08:40:10.886Z,364.00
2019-05-30T08:41:10.761Z,364.00
2019-05-30T08:42:10.810Z,368.00
2019-05-30T08:43:10.816Z,372.00
2019-05-30T08:44:10.854Z,376.00
2019-05-30T08:45:10.809Z,376.00
2019-05-30T08:46:10.817Z,384.00
2019-05-30T08:47:10.829Z,384.00
2019-05-30T08:48:10.875Z,388.00
2019-05-30T08:49:10.869Z,388.00
2019-05-30T08:50:10.890Z,392.00
2019-05-30T08:51:10.881Z,396.00
2019-05-30T08:52:10.897Z,400.00
2019-05-30T08:53:10.962Z,404.00
2019-05-30T08:54:13.689Z,412.00
2019-05-30T08:55:10.984Z,412.00
2019-05-30T08:56:10.988Z,416.00
2019-05-30T08:57:10.964Z,420.00
2019-05-30T08:58:10.990Z,420.00
2019-05-30T08:59:11.111Z,424.00
2019-05-30T09:00:10.999Z,428.00
2019-05-30T09:01:11.101Z,428.00
2019-05-30T09:02:11.012Z,436.00
2019-05-30T09:03:11.075Z,436.00
2019-05-30T09:04:11.040Z,440.00
2019-05-30T09:05:11.027Z,444.00
2019-05-30T09:06:11.041Z,448.00
2019-05-30T09:07:11.093Z,448.00
2019-05-30T09:08:11.065Z,452.00
2019-05-30T09:09:11.096Z,452.00
2019-05-30T09:10:11.084Z,460.00
2019-05-30T09:11:11.159Z,464.00
2019-05-30T09:12:11.145Z,472.00
2019-05-30T09:13:11.123Z,476.00
2019-05-30T09:14:11.137Z,480.00
2019-05-30T09:15:11.164Z,484.00
2019-05-30T09:16:11.244Z,488.00
2019-05-30T09:17:11.179Z,488.00
2019-05-30T09:18:11.274Z,496.00
2019-05-30T09:19:11.203Z,496.00
2019-05-30T09:20:11.201Z,508.00
2019-05-30T09:21:11.266Z,512.00
2019-05-30T09:22:11.220Z,520.00
2019-05-30T09:23:11.322Z,524.00
2019-05-30T09:24:11.321Z,524.00
2019-05-30T09:25:11.391Z,532.00
2019-05-30T09:26:11.274Z,536.00
2019-05-30T09:27:11.325Z,536.00
2019-05-30T09:28:11.288Z,544.00
2019-05-30T09:29:11.317Z,548.00
2019-05-30T09:30:11.309Z,552.00
2019-05-30T09:31:11.366Z,556.00
2019-05-30T09:32:11.397Z,564.00
2019-05-30T09:33:11.377Z,568.00
2019-05-30T09:34:12.153Z,572.00
2019-05-30T09:35:11.418Z,580.00
2019-05-30T09:36:13.454Z,584.00
2019-05-30T09:37:11.420Z,588.00
2019-05-30T09:38:11.581Z,600.00
2019-05-30T09:39:11.419Z,604.00
2019-05-30T09:40:11.499Z,608.00
2019-05-30T09:41:11.559Z,612.00
2019-05-30T09:42:11.490Z,616.00
2019-05-30T09:43:11.472Z,620.00
2019-05-30T09:44:11.494Z,624.00
2019-05-30T09:45:11.502Z,628.00
2019-05-30T09:46:11.678Z,640.00
2019-05-30T09:47:11.737Z,640.00
2019-05-30T09:48:11.581Z,644.00
2019-05-30T09:49:11.587Z,652.00
2019-05-30T09:50:11.609Z,656.00
2019-05-30T09:51:11.604Z,664.00
2019-05-30T09:52:11.705Z,668.00
2019-05-30T09:53:11.613Z,676.00
2019-05-30T09:54:11.650Z,676.00
2019-05-30T09:55:11.651Z,680.00
2019-05-30T09:56:11.663Z,684.00
2019-05-30T09:57:11.660Z,688.00
2019-05-30T09:58:11.658Z,696.00
2019-05-30T09:59:11.682Z,704.00
2019-05-30T10:00:11.976Z,708.00
2019-05-30T10:01:11.689Z,712.00
2019-05-30T10:02:11.793Z,720.00
2019-05-30T10:03:11.728Z,724.00
2019-05-30T10:04:11.736Z,732.00
2019-05-30T10:05:11.787Z,732.00
2019-05-30T10:06:11.744Z,740.00
2019-05-30T10:07:11.765Z,744.00
2019-05-30T10:08:11.814Z,756.00
2019-05-30T10:09:11.799Z,760.00
2019-05-30T10:10:11.865Z,768.00
2019-05-30T10:11:11.844Z,768.00
2019-05-30T10:12:11.833Z,776.00
2019-05-30T10:13:11.985Z,784.00
2019-05-30T10:14:11.878Z,788.00
2019-05-30T10:15:12.074Z,796.00
2019-05-30T10:16:11.889Z,800.00
2019-05-30T10:17:11.931Z,804.00
2019-05-30T10:18:12.049Z,808.00
2019-05-30T10:19:11.919Z,820.00
2019-05-30T10:20:11.955Z,824.00
2019-05-30T10:21:11.974Z,828.00
2019-05-30T10:22:11.976Z,828.00
2019-05-30T10:23:11.970Z,836.00
2019-05-30T10:24:12.022Z,840.00
2019-05-30T10:25:12.041Z,852.00
2019-05-30T10:26:12.100Z,852.00
2019-05-30T10:27:12.334Z,860.00
2019-05-30T10:28:12.040Z,864.00
2019-05-30T10:29:12.211Z,868.00
2019-05-30T10:30:12.063Z,876.00
2019-05-30T10:31:12.157Z,880.00
2019-05-30T10:32:12.156Z,884.00
2019-05-30T10:33:12.095Z,888.00
2019-05-30T10:34:12.196Z,896.00
2019-05-30T10:35:12.127Z,900.00
2019-05-30T10:36:14.716Z,904.00
2019-05-30T10:37:12.375Z,912.00
2019-05-30T10:38:12.221Z,916.00
2019-05-30T10:39:12.407Z,920.00
2019-05-30T10:40:12.204Z,924.00
2019-05-30T10:41:12.424Z,928.00
2019-05-30T10:42:12.364Z,936.00
2019-05-30T10:43:12.241Z,936.00
2019-05-30T10:44:12.246Z,944.00
2019-05-30T10:45:12.260Z,948.00
2019-05-30T10:46:12.275Z,948.00
2019-05-30T10:47:12.449Z,952.00
2019-05-30T10:48:12.298Z,960.00
2019-05-30T10:49:12.312Z,960.00
2019-05-30T10:50:12.338Z,972.00
2019-05-30T10:51:12.844Z,972.00
2019-05-30T10:52:12.614Z,976.00
2019-05-30T10:53:12.396Z,984.00
2019-05-30T10:54:12.372Z,988.00
2019-05-30T10:55:12.532Z,992.00
2019-05-30T10:56:12.456Z,996.00
2019-05-30T10:57:12.450Z,996.00
2019-05-30T10:58:12.516Z,1004.00
2019-05-30T10:59:12.509Z,1012.00
2019-05-30T11:00:12.496Z,1012.00
2019-05-30T11:01:12.494Z,1020.00
2019-05-30T11:02:12.534Z,1024.00
2019-05-30T11:03:12.529Z,1028.00
2019-05-30T11:04:12.518Z,1032.00
2019-05-30T11:05:12.665Z,1036.00
2019-05-30T11:06:12.564Z,1040.00
2019-05-30T11:07:12.603Z,1044.00
2019-05-30T11:08:12.603Z,1048.00
2019-05-30T11:09:12.617Z,1048.00
2019-05-30T11:10:12.610Z,1056.00
2019-05-30T11:11:12.710Z,1060.00
2019-05-30T11:12:12.734Z,1064.00
2019-05-30T11:13:12.681Z,1068.00
2019-05-30T11:14:12.662Z,1072.00
2019-05-30T11:15:12.687Z,1076.00
2019-05-30T11:16:12.719Z,1080.00
2019-05-30T11:17:12.708Z,1084.00
2019-05-30T11:18:12.901Z,1088.00
2019-05-30T11:19:12.727Z,1092.00
2019-05-30T11:20:12.787Z,1096.00
2019-05-30T11:21:12.823Z,1100.00
2019-05-30T11:22:12.790Z,1104.00
2019-05-30T11:23:12.782Z,1108.00
2019-05-30T11:24:12.808Z,1108.00
2019-05-30T11:25:12.872Z,1108.00
2019-05-30T11:26:12.904Z,1112.00
2019-05-30T11:27:12.831Z,1116.00
2019-05-30T11:28:12.849Z,1120.00
2019-05-30T11:29:12.890Z,1124.00
2019-05-30T11:30:12.890Z,1128.00
2019-05-30T11:31:12.903Z,1132.00
2019-05-30T11:32:12.904Z,1128.00
2019-05-30T11:33:12.957Z,1136.00
2019-05-30T11:34:13.017Z,1140.00
2019-05-30T11:35:13.004Z,1148.00
2019-05-30T11:36:12.971Z,1148.00
2019-05-30T11:37:18.911Z,1152.00
2019-05-30T11:38:12.995Z,1156.00
2019-05-30T11:39:13.072Z,1160.00
2019-05-30T11:40:13.044Z,1164.00
2019-05-30T11:41:13.066Z,1164.00
2019-05-30T11:42:13.082Z,1172.00
2019-05-30T11:43:13.073Z,1172.00
2019-05-30T11:44:13.180Z,1180.00
2019-05-30T11:45:13.106Z,1180.00
2019-05-30T11:46:13.176Z,1184.00
2019-05-30T11:47:13.118Z,1188.00
2019-05-30T11:48:13.145Z,1188.00
2019-05-30T11:49:13.153Z,1192.00
2019-05-30T11:50:13.289Z,1196.00
2019-05-30T11:51:13.366Z,1200.00
2019-05-30T11:52:13.202Z,1200.00
2019-05-30T11:53:13.209Z,1208.00
2019-05-30T11:54:13.265Z,1208.00
2019-05-30T11:55:13.283Z,1216.00
2019-05-30T11:56:13.279Z,1216.00
2019-05-30T11:57:13.369Z,1216.00
2019-05-30T11:58:13.285Z,1220.00
2019-05-30T11:59:13.324Z,1224.00
2019-05-30T12:00:13.344Z,1228.00
2019-05-30T12:01:13.333Z,1228.00
2019-05-30T12:02:13.397Z,1236.00
2019-05-30T12:03:13.467Z,1236.00
2019-05-30T12:04:13.396Z,1236.00
2019-05-30T12:05:13.964Z,1244.00
2019-05-30T12:06:13.405Z,1244.00
2019-05-30T12:07:13.425Z,1248.00
2019-05-30T12:08:13.519Z,1248.00
2019-05-30T12:09:14.652Z,1256.00
2019-05-30T12:10:13.472Z,1256.00
2019-05-30T12:11:13.536Z,1256.00
2019-05-30T12:12:13.497Z,1260.00
2019-05-30T12:13:13.754Z,1268.00
2019-05-30T12:14:13.753Z,1264.00
2019-05-30T12:15:13.620Z,1268.00
2019-05-30T12:16:13.576Z,1268.00
2019-05-30T12:17:13.577Z,1272.00
2019-05-30T12:18:13.600Z,1276.00
2019-05-30T12:19:13.615Z,1276.00
2019-05-30T12:20:13.635Z,1276.00
2019-05-30T12:21:13.659Z,1280.00
2019-05-30T12:22:14.009Z,1280.00
2019-05-30T12:23:13.670Z,1284.00
2019-05-30T12:24:13.728Z,1280.00
2019-05-30T12:25:13.710Z,1284.00
2019-05-30T12:26:13.715Z,1288.00
2019-05-30T12:27:13.816Z,1292.00
2019-05-30T12:28:13.748Z,1292.00
2019-05-30T12:29:13.782Z,1292.00
2019-05-30T12:30:13.777Z,1296.00
2019-05-30T12:31:13.884Z,1300.00
2019-05-30T12:32:13.919Z,1296.00
2019-05-30T12:33:13.859Z,1300.00
2019-05-30T12:34:13.839Z,1300.00
2019-05-30T12:35:14.032Z,1300.00
2019-05-30T12:36:13.894Z,1304.00
2019-05-30T12:37:13.887Z,1308.00
2019-05-30T12:38:13.912Z,1308.00
2019-05-30T12:39:13.928Z,1308.00
2019-05-30T12:40:13.940Z,1312.00
2019-05-30T12:41:13.948Z,1312.00
2019-05-30T12:42:13.959Z,1312.00
2019-05-30T12:43:14.033Z,1312.00
2019-05-30T12:44:14.067Z,1316.00